West Gilgo Beach, New York
Current Conditions -  °F | °C
As of 11:53 AM on Wednesday 22 Oct 2014 (Local Time) from KFRG Reporting Station
Overcast Overcast  
Wind Chill: 56°   Ceiling: 1400
Heat Index: 56°   Visibility: 10mi
Dew Point: 52°   Wind: 14mph
Humidity: 87%   Direction: 40°NE
Pressure: 29.9"   Gusts: 28mph
Location:  40.6311°N, 73.3431°W
Report Text: KFRG 221553Z 04012G24KT 10SM OVC014 13/11 A2990 RMK AO2 SLP124 T01330111
Loading
Personal Weather Stations






























Interactive Weather Map
Tropical Storm Tracking
New forecast layout! Learn more

10-Day Weather Forecast

Advertisements
Track Severe Weather on mobile